Time;durP1;ratioP1;P1;durP2;ratioP2;P2;SDS_P1;SDS_P2;PMS_P1;PMS_P2;Temp;Humidity;BMP_temperature;BMP_pressure;BME280_temperature;BME280_humidity;BME280_pressure;Samples;Min_cycle;Max_cycle;Signal;HPM_P1;HPM_P2
2022/07/31 00:00:15;;;;;;;4.15;2.88;;;21.70;99.90;;;;;;5047581;28;20678;-69
2022/07/31 00:02:43;;;;;;;4.47;3.30;;;21.80;99.90;;;;;;5061370;28;20708;-68
2022/07/31 00:05:10;;;;;;;4.20;3.10;;;21.70;99.90;;;;;;5054497;28;20203;-68
2022/07/31 00:07:36;;;;;;;5.70;3.17;;;21.80;99.90;;;;;;5051879;28;20202;-68
2022/07/31 00:10:04;;;;;;;3.67;2.90;;;21.70;99.90;;;;;;5034405;28;20197;-67
2022/07/31 00:12:31;;;;;;;3.72;2.70;;;21.70;99.90;;;;;;5050762;28;20217;-68
2022/07/31 00:14:57;;;;;;;4.47;3.17;;;21.70;99.90;;;;;;5056187;28;20285;-68
2022/07/31 00:17:24;;;;;;;4.85;3.20;;;21.70;99.90;;;;;;5054033;28;20199;-68
2022/07/31 00:19:51;;;;;;;3.67;3.17;;;21.60;99.90;;;;;;5055934;28;20282;-68
2022/07/31 00:22:17;;;;;;;4.88;3.22;;;21.60;99.90;;;;;;5050507;28;20199;-69
2022/07/31 00:24:44;;;;;;;5.05;3.20;;;21.50;99.90;;;;;;5055732;28;20206;-68
2022/07/31 00:27:11;;;;;;;4.60;3.40;;;21.40;99.90;;;;;;5054575;28;20666;-68
2022/07/31 00:29:37;;;;;;;4.18;3.22;;;21.30;99.90;;;;;;5054189;28;20237;-69
2022/07/31 00:32:05;;;;;;;5.57;3.15;;;21.30;99.90;;;;;;5053986;28;20594;-68
2022/07/31 00:34:31;;;;;;;5.05;3.15;;;21.20;99.90;;;;;;5054207;28;20614;-68
2022/07/31 00:36:58;;;;;;;3.92;3.15;;;21.30;99.90;;;;;;5056225;28;20644;-68
2022/07/31 00:39:25;;;;;;;4.63;3.15;;;21.40;99.90;;;;;;5049535;28;20213;-67
2022/07/31 00:41:53;;;;;;;5.22;3.70;;;21.30;99.90;;;;;;5056250;28;20221;-68
2022/07/31 00:44:20;;;;;;;3.70;3.20;;;21.20;99.90;;;;;;5048674;28;20203;-67
2022/07/31 00:46:47;;;;;;;3.78;2.92;;;21.10;99.90;;;;;;5055593;28;20253;-68
2022/07/31 00:49:14;;;;;;;5.18;3.20;;;21.10;99.90;;;;;;5049280;28;20214;-68
2022/07/31 00:51:41;;;;;;;4.72;3.05;;;21.10;99.90;;;;;;5054761;28;20217;-68
2022/07/31 00:54:09;;;;;;;4.88;3.42;;;21.00;99.90;;;;;;5055734;28;20194;-68
2022/07/31 00:56:42;;;;;;;3.50;3.13;;;21.00;99.90;;;;;;5038042;28;20248;-68
2022/07/31 00:59:09;;;;;;;5.78;3.40;;;21.00;99.90;;;;;;5055594;28;20490;-69
2022/07/31 01:01:35;;;;;;;4.32;3.15;;;21.10;99.90;;;;;;5053576;28;20219;-67
2022/07/31 01:04:02;;;;;;;4.47;3.00;;;21.00;99.90;;;;;;5053899;28;20572;-68
2022/07/31 01:06:29;;;;;;;3.92;3.08;;;20.90;99.90;;;;;;5054310;28;20198;-69
2022/07/31 01:08:55;;;;;;;3.22;2.67;;;20.90;99.90;;;;;;5051927;28;20554;-67
2022/07/31 01:11:43;;;;;;;4.38;3.55;;;20.80;99.90;;;;;;5054047;28;20215;-69
2022/07/31 01:14:12;;;;;;;4.22;3.13;;;20.70;99.90;;;;;;5052272;28;20190;-68
2022/07/31 01:16:44;;;;;;;4.05;3.35;;;20.50;99.90;;;;;;5055076;28;20284;-68
2022/07/31 01:19:29;;;;;;;5.15;3.10;;;20.60;99.90;;;;;;5053740;28;20256;-68
2022/07/31 01:22:46;;;;;;;4.30;3.00;;;20.80;99.90;;;;;;5064591;28;20218;-67
2022/07/31 01:25:37;;;;;;;5.13;3.47;;;20.60;99.90;;;;;;5054991;28;20206;-69
2022/07/31 01:28:09;;;;;;;5.90;3.50;;;20.50;99.90;;;;;;5059879;28;20649;-67
2022/07/31 01:30:44;;;;;;;4.83;3.20;;;20.40;99.90;;;;;;5048826;28;20266;-66
2022/07/31 01:33:17;;;;;;;4.68;3.30;;;20.30;99.90;;;;;;5054239;28;20201;-68
2022/07/31 01:36:07;;;;;;;6.67;4.27;;;20.20;99.90;;;;;;5058892;28;20245;-68
2022/07/31 01:38:39;;;;;;;3.80;3.30;;;20.40;99.90;;;;;;5051102;28;20281;-67
2022/07/31 01:41:13;;;;;;;3.87;3.33;;;20.50;99.90;;;;;;5056269;28;20596;-68
2022/07/31 01:43:42;;;;;;;4.87;3.67;;;20.50;99.90;;;;;;5058996;28;20203;-68
2022/07/31 01:46:12;;;;;;;3.57;3.10;;;20.50;99.90;;;;;;5049735;28;20202;-67
2022/07/31 01:48:40;;;;;;;5.17;3.80;;;20.40;99.90;;;;;;5045391;28;20237;-68
2022/07/31 01:51:09;;;;;;;5.07;3.60;;;20.30;99.90;;;;;;5048996;28;20222;-66
2022/07/31 01:53:37;;;;;;;4.23;3.40;;;20.30;99.90;;;;;;5051093;28;20198;-68
2022/07/31 01:56:06;;;;;;;5.37;3.70;;;20.20;99.90;;;;;;5044645;28;20195;-68
2022/07/31 01:58:36;;;;;;;4.73;3.60;;;20.30;99.90;;;;;;5052009;28;20199;-68
2022/07/31 02:01:07;;;;;;;5.30;3.60;;;20.40;99.90;;;;;;5052022;28;20219;-68
2022/07/31 02:03:35;;;;;;;5.43;3.40;;;20.40;99.90;;;;;;5040488;28;20234;-68
2022/07/31 02:06:15;;;;;;;4.30;3.63;;;20.20;99.90;;;;;;5050969;28;20526;-67
2022/07/31 02:08:44;;;;;;;4.47;3.60;;;20.10;99.90;;;;;;5052257;28;20225;-68
2022/07/31 02:11:14;;;;;;;4.27;3.30;;;20.10;99.90;;;;;;5051779;28;20210;-68
2022/07/31 02:13:43;;;;;;;4.97;3.27;;;20.20;99.90;;;;;;5052217;28;20202;-67
2022/07/31 02:16:12;;;;;;;3.70;3.03;;;20.10;99.90;;;;;;5050638;28;20187;-67
2022/07/31 02:18:41;;;;;;;3.40;3.10;;;19.90;99.90;;;;;;5051518;28;20226;-67
2022/07/31 02:21:08;;;;;;;5.17;3.60;;;19.70;99.90;;;;;;5051833;28;20215;-68
2022/07/31 02:23:36;;;;;;;5.97;3.50;;;19.70;99.90;;;;;;5049268;28;20207;-68
2022/07/31 02:26:05;;;;;;;5.17;3.43;;;19.60;99.90;;;;;;5051761;28;20225;-68
2022/07/31 02:28:36;;;;;;;4.10;3.67;;;19.50;99.90;;;;;;5052087;28;20253;-68
2022/07/31 02:31:09;;;;;;;4.23;3.40;;;19.60;99.90;;;;;;5048434;28;20215;-68
2022/07/31 02:33:36;;;;;;;4.07;3.33;;;19.60;99.90;;;;;;5047553;28;20209;-68
2022/07/31 02:36:05;;;;;;;4.17;3.30;;;19.60;99.90;;;;;;5051510;28;20187;-67
2022/07/31 02:38:33;;;;;;;3.83;3.43;;;19.50;99.90;;;;;;5051477;28;20199;-67
2022/07/31 02:41:03;;;;;;;5.50;3.47;;;19.40;99.90;;;;;;5050465;28;20728;-66
2022/07/31 02:43:32;;;;;;;4.23;3.67;;;19.50;99.90;;;;;;5047380;28;20349;-67
2022/07/31 02:45:59;;;;;;;6.57;3.70;;;19.60;99.90;;;;;;5051334;28;20199;-68
2022/07/31 02:48:26;;;;;;;5.80;3.40;;;19.50;99.90;;;;;;5051497;28;20191;-67
2022/07/31 02:50:53;;;;;;;3.80;3.30;;;19.40;99.90;;;;;;5049166;28;20222;-67
2022/07/31 02:53:20;;;;;;;4.47;3.20;;;19.20;99.90;;;;;;5050671;28;20663;-68
2022/07/31 02:55:48;;;;;;;5.30;3.43;;;19.10;99.90;;;;;;5051275;28;20190;-68
2022/07/31 02:58:15;;;;;;;3.77;3.30;;;19.00;99.90;;;;;;5051072;28;20198;-68
2022/07/31 03:00:42;;;;;;;4.40;3.37;;;19.00;99.90;;;;;;5047090;28;20215;-67
2022/07/31 03:03:08;;;;;;;4.23;3.23;;;19.10;99.90;;;;;;5051258;28;20202;-67
2022/07/31 03:05:35;;;;;;;4.77;3.13;;;19.10;99.90;;;;;;5051241;28;20300;-67
2022/07/31 03:08:02;;;;;;;4.37;3.40;;;18.90;99.90;;;;;;5051266;28;20198;-69
2022/07/31 03:10:28;;;;;;;6.23;3.50;;;18.70;99.90;;;;;;5048230;28;20218;-67
2022/07/31 03:12:57;;;;;;;4.73;3.67;;;18.80;99.90;;;;;;5050793;28;20244;-67
2022/07/31 03:15:25;;;;;;;4.23;3.73;;;18.90;99.90;;;;;;5050241;28;20663;-68
2022/07/31 03:17:53;;;;;;;6.23;3.23;;;19.00;99.90;;;;;;5049399;28;20187;-67
2022/07/31 03:20:21;;;;;;;4.67;3.40;;;18.90;99.90;;;;;;5050049;28;20284;-68
2022/07/31 03:22:48;;;;;;;4.60;3.43;;;18.90;99.90;;;;;;5050665;28;20240;-67
2022/07/31 03:25:15;;;;;;;4.63;3.37;;;18.90;99.90;;;;;;5049922;28;20195;-68
2022/07/31 03:27:48;;;;;;;4.60;3.30;;;18.90;99.90;;;;;;5048790;28;20625;-67
2022/07/31 03:30:24;;;;;;;5.10;3.67;;;18.80;99.90;;;;;;5050235;28;20313;-67
2022/07/31 03:32:54;;;;;;;7.13;3.40;;;18.60;99.90;;;;;;5050437;28;20245;-67
2022/07/31 03:35:23;;;;;;;4.10;3.37;;;18.40;99.90;;;;;;5047225;28;20519;-68
2022/07/31 03:37:50;;;;;;;4.63;3.70;;;18.30;99.90;;;;;;5049216;28;20187;-68
2022/07/31 03:40:16;;;;;;;6.60;3.43;;;18.30;99.90;;;;;;5049777;28;20219;-68
2022/07/31 03:42:44;;;;;;;4.20;3.30;;;18.40;99.90;;;;;;5049806;28;20197;-67
2022/07/31 03:45:12;;;;;;;5.30;3.73;;;18.60;99.90;;;;;;5049978;28;20381;-68
2022/07/31 03:47:38;;;;;;;4.17;3.60;;;18.80;99.90;;;;;;5049617;28;20221;-68
2022/07/31 03:50:06;;;;;;;4.23;3.30;;;18.80;99.90;;;;;;5039647;28;20276;-67
2022/07/31 03:52:34;;;;;;;4.73;3.17;;;18.80;99.90;;;;;;5048400;28;20557;-67
2022/07/31 03:55:01;;;;;;;4.23;3.30;;;18.70;99.90;;;;;;5049983;28;20245;-68
2022/07/31 03:57:29;;;;;;;3.53;2.97;;;18.80;99.90;;;;;;5049943;28;20721;-67
2022/07/31 04:00:01;;;;;;;3.63;3.03;;;18.70;99.90;;;;;;5049328;28;20199;-67
2022/07/31 04:02:28;;;;;;;4.37;3.07;;;18.60;99.90;;;;;;5047790;28;20194;-68
2022/07/31 04:04:56;;;;;;;4.80;3.70;;;18.60;99.90;;;;;;5049876;28;20198;-67
2022/07/31 04:07:23;;;;;;;5.73;3.20;;;18.60;99.90;;;;;;5040229;28;20203;-68
2022/07/31 04:09:50;;;;;;;4.80;3.27;;;18.70;99.90;;;;;;5049702;28;20214;-67
2022/07/31 04:12:17;;;;;;;4.90;3.37;;;18.90;99.90;;;;;;5046189;28;20194;-67
2022/07/31 04:14:43;;;;;;;4.60;3.13;;;19.10;99.90;;;;;;5049674;28;20193;-67
2022/07/31 04:17:10;;;;;;;6.23;2.90;;;19.20;99.90;;;;;;5049581;28;20195;-68
2022/07/31 04:19:38;;;;;;;3.57;2.90;;;19.20;99.90;;;;;;5046844;28;20244;-68
2022/07/31 04:22:06;;;;;;;4.57;2.90;;;19.20;99.90;;;;;;5036854;28;20215;-67
2022/07/31 04:24:33;;;;;;;3.43;3.13;;;19.20;99.90;;;;;;5046266;28;20240;-68
2022/07/31 04:27:00;;;;;;;5.70;2.90;;;19.40;99.90;;;;;;5048914;28;20206;-68
2022/07/31 04:29:30;;;;;;;3.87;2.90;;;19.40;99.90;;;;;;5049626;28;20215;-67
2022/07/31 04:31:56;;;;;;;5.03;3.00;;;19.30;99.90;;;;;;5049467;28;20285;-67
2022/07/31 04:34:23;;;;;;;4.30;3.00;;;19.20;99.90;;;;;;5050076;28;20203;-67
2022/07/31 04:36:49;;;;;;;3.37;2.70;;;19.30;99.90;;;;;;5048780;28;20187;-68
2022/07/31 04:39:16;;;;;;;3.00;2.70;;;19.40;99.90;;;;;;5049642;28;20569;-67
2022/07/31 04:41:43;;;;;;;6.73;2.80;;;19.50;99.90;;;;;;5049227;28;20214;-67
2022/07/31 04:44:10;;;;;;;4.23;2.83;;;19.40;99.90;;;;;;5045727;28;20270;-67
2022/07/31 04:46:37;;;;;;;5.43;2.70;;;19.40;99.90;;;;;;5050259;28;20195;-67
2022/07/31 04:49:03;;;;;;;4.10;3.03;;;19.50;99.90;;;;;;5049862;28;20195;-67
2022/07/31 04:51:30;;;;;;;3.47;2.87;;;19.60;99.90;;;;;;5047102;28;20214;-68
2022/07/31 04:53:57;;;;;;;4.40;2.60;;;19.60;99.90;;;;;;5047607;28;20221;-67
2022/07/31 04:56:33;;;;;;;3.00;2.70;;;19.60;99.90;;;;;;5049583;28;20191;-68
2022/07/31 04:59:02;;;;;;;3.00;2.60;;;19.70;99.90;;;;;;5049438;28;20190;-67
2022/07/31 05:01:29;;;;;;;5.50;3.07;;;19.80;99.90;;;;;;5053219;28;20214;-67
2022/07/31 05:03:56;;;;;;;4.33;3.10;;;19.90;99.90;;;;;;5052176;28;20770;-66
2022/07/31 05:06:51;;;;;;;2.60;2.37;;;20.10;99.90;;;;;;5053369;28;20195;-68
2022/07/31 05:09:21;;;;;;;2.90;2.40;;;20.10;99.90;;;;;;5052354;28;20219;-68
2022/07/31 05:11:51;;;;;;;4.83;2.80;;;20.10;99.90;;;;;;5050216;28;20221;-68
2022/07/31 05:14:19;;;;;;;2.50;2.30;;;20.30;99.90;;;;;;5053300;28;20198;-68
2022/07/31 05:16:46;;;;;;;4.80;2.70;;;20.60;99.90;;;;;;5053209;28;20198;-68
2022/07/31 05:19:13;;;;;;;4.00;2.90;;;20.70;99.90;;;;;;5052103;28;20199;-68
2022/07/31 05:21:42;;;;;;;3.45;2.75;;;20.70;99.90;;;;;;5052541;28;20207;-67
2022/07/31 05:24:20;;;;;;;3.17;2.55;;;20.80;99.90;;;;;;5052253;28;20186;-68
2022/07/31 05:27:02;;;;;;;4.07;3.10;;;20.90;99.90;;;;;;5053105;28;20199;-67
2022/07/31 05:29:30;;;;;;;5.47;2.85;;;21.10;99.90;;;;;;5048764;28;20230;-65
2022/07/31 05:31:57;;;;;;;3.65;2.70;;;21.40;99.90;;;;;;5052562;28;20601;-66
2022/07/31 05:34:28;;;;;;;4.25;2.90;;;21.50;99.90;;;;;;5052344;28;20198;-67
2022/07/31 05:36:56;;;;;;;2.50;2.30;;;21.60;99.90;;;;;;5052941;28;20257;-68
2022/07/31 05:39:24;;;;;;;3.33;2.78;;;21.50;99.90;;;;;;5049521;28;20198;-67
2022/07/31 05:41:51;;;;;;;2.75;2.50;;;21.60;99.90;;;;;;5052393;28;20215;-68
2022/07/31 05:44:18;;;;;;;2.97;2.60;;;21.60;99.90;;;;;;5051897;28;20191;-67
2022/07/31 05:46:44;;;;;;;3.10;2.60;;;21.60;99.90;;;;;;5051743;28;20198;-68
2022/07/31 05:49:11;;;;;;;3.03;2.67;;;21.70;99.90;;;;;;5042160;28;20195;-68
2022/07/31 05:51:42;;;;;;;4.55;2.95;;;21.80;99.90;;;;;;5051859;28;20686;-67
2022/07/31 05:54:08;;;;;;;3.95;2.70;;;21.90;99.90;;;;;;5051630;28;20195;-67
2022/07/31 05:56:35;;;;;;;5.85;2.92;;;21.90;99.90;;;;;;5052337;28;20191;-68
2022/07/31 05:59:01;;;;;;;3.38;2.70;;;21.90;99.90;;;;;;5052394;28;20202;-67
2022/07/31 06:01:28;;;;;;;4.00;2.70;;;21.80;99.90;;;;;;5051624;28;20233;-68
2022/07/31 06:03:55;;;;;;;3.70;2.75;;;21.80;99.90;;;;;;5049430;28;20298;-68
2022/07/31 06:06:21;;;;;;;5.47;2.70;;;21.80;99.90;;;;;;5051685;28;20622;-67
2022/07/31 06:08:48;;;;;;;4.05;2.65;;;21.90;99.90;;;;;;5052055;28;20228;-67
2022/07/31 06:11:15;;;;;;;4.05;3.10;;;22.00;99.90;;;;;;5051078;28;20296;-68
2022/07/31 06:13:42;;;;;;;4.97;3.13;;;22.20;99.90;;;;;;5049287;28;20721;-68
2022/07/31 06:16:12;;;;;;;4.88;2.95;;;22.30;99.90;;;;;;5052606;28;20281;-66
2022/07/31 06:18:40;;;;;;;5.28;3.22;;;22.50;99.90;;;;;;5051830;28;20547;-67
2022/07/31 06:21:06;;;;;;;6.05;3.60;;;22.70;99.90;;;;;;5048672;28;20215;-68
2022/07/31 06:23:33;;;;;;;4.65;3.35;;;22.80;99.90;;;;;;5051693;28;20207;-68
2022/07/31 06:25:59;;;;;;;5.00;3.35;;;23.10;99.90;;;;;;5052146;28;20202;-67
2022/07/31 06:28:26;;;;;;;6.35;4.13;;;23.10;99.90;;;;;;5047693;28;20207;-68
2022/07/31 06:31:18;;;;;;;7.15;3.85;;;22.90;99.90;;;;;;5050974;28;20648;-68
2022/07/31 06:33:45;;;;;;;5.00;3.20;;;23.20;99.90;;;;;;5051803;28;20194;-67
2022/07/31 06:36:14;;;;;;;7.03;3.78;;;23.20;99.90;;;;;;5049166;28;20203;-68
2022/07/31 06:38:41;;;;;;;10.52;4.50;;;23.30;99.90;;;;;;5051073;28;20202;-68
2022/07/31 06:41:07;;;;;;;6.75;3.45;;;23.30;99.90;;;;;;5051122;28;20248;-68
2022/07/31 06:43:34;;;;;;;8.65;3.60;;;23.30;99.90;;;;;;5050972;28;20658;-67
2022/07/31 06:46:00;;;;;;;7.25;3.38;;;23.40;99.90;;;;;;5048274;28;20195;-68
2022/07/31 06:48:27;;;;;;;6.35;3.30;;;23.70;99.90;;;;;;5051221;28;20624;-68
2022/07/31 06:50:54;;;;;;;5.30;3.38;;;23.90;99.90;;;;;;5050923;28;20218;-67
2022/07/31 06:53:41;;;;;;;7.07;3.22;;;24.00;99.90;;;;;;5041837;28;20195;-68
2022/07/31 06:56:07;;;;;;;7.95;3.50;;;24.20;99.90;;;;;;5050214;28;20278;-68
2022/07/31 06:58:34;;;;;;;6.40;3.28;;;24.50;99.90;;;;;;5039885;28;20701;-68
2022/07/31 07:01:00;;;;;;;6.03;3.30;;;24.80;99.90;;;;;;5050644;28;20215;-68
2022/07/31 07:03:27;;;;;;;9.30;3.35;;;25.10;99.90;;;;;;5049256;28;20295;-68
2022/07/31 07:05:54;;;;;;;6.10;3.50;;;25.50;99.90;;;;;;5050958;28;20575;-68
2022/07/31 07:08:21;;;;;;;8.57;3.50;;;25.70;99.90;;;;;;5050966;28;20191;-67
2022/07/31 07:10:47;;;;;;;5.85;3.60;;;25.80;99.90;;;;;;5050644;28;20243;-69
2022/07/31 07:13:14;;;;;;;9.38;3.40;;;26.00;99.90;;;;;;5049973;28;20202;-68
2022/07/31 07:15:40;;;;;;;6.78;3.47;;;25.90;99.90;;;;;;5050597;28;20198;-68
2022/07/31 07:18:07;;;;;;;5.35;3.83;;;25.80;99.90;;;;;;5050682;28;20217;-68
2022/07/31 07:20:34;;;;;;;9.05;3.75;;;25.60;99.90;;;;;;5050093;28;20225;-68
2022/07/31 07:23:00;;;;;;;8.45;3.90;;;25.20;99.90;;;;;;5048437;28;20199;-68
2022/07/31 07:25:27;;;;;;;6.00;3.90;;;25.20;99.90;;;;;;5050837;28;20199;-68
2022/07/31 07:27:55;;;;;;;7.43;3.45;;;25.20;99.90;;;;;;5050894;28;20194;-68
2022/07/31 07:30:22;;;;;;;6.97;3.25;;;25.10;99.90;;;;;;5050070;28;20234;-67
2022/07/31 07:32:49;;;;;;;6.72;3.35;;;25.00;99.90;;;;;;5047518;28;20666;-68
2022/07/31 07:35:15;;;;;;;3.97;3.03;;;25.10;99.90;;;;;;5049943;28;20202;-68
2022/07/31 07:37:42;;;;;;;5.22;3.22;;;25.00;99.90;;;;;;5050657;28;20187;-68
2022/07/31 07:40:09;;;;;;;5.93;3.53;;;25.10;99.90;;;;;;5046690;28;20231;-68
2022/07/31 07:42:36;;;;;;;6.30;3.50;;;24.80;99.90;;;;;;5049908;28;20629;-68
2022/07/31 07:45:03;;;;;;;4.82;3.10;;;25.00;99.90;;;;;;5044174;28;20190;-67
2022/07/31 07:47:34;;;;;;;6.25;3.72;;;25.30;99.90;;;;;;5050484;28;20290;-69
2022/07/31 07:50:21;;;;;;;8.63;3.58;;;25.80;99.90;;;;;;5046727;28;20272;-68
2022/07/31 07:52:52;;;;;;;11.18;3.55;;;26.30;99.90;;;;;;5050662;28;20203;-68
2022/07/31 07:55:19;;;;;;;4.25;3.40;;;26.50;99.90;;;;;;5050342;28;20191;-68
2022/07/31 07:57:46;;;;;;;5.57;3.30;;;27.00;99.90;;;;;;5046066;28;20579;-68
2022/07/31 08:00:13;;;;;;;5.50;3.40;;;27.50;99.90;;;;;;5049747;28;20218;-68
2022/07/31 08:02:41;;;;;;;5.13;4.05;;;27.80;99.90;;;;;;5050201;28;20261;-70
2022/07/31 08:05:08;;;;;;;5.68;3.40;;;28.30;99.90;;;;;;5043478;28;20203;-69
2022/07/31 08:07:37;;;;;;;10.65;3.83;;;28.40;99.90;;;;;;5043837;28;20199;-69
2022/07/31 08:10:08;;;;;;;8.45;4.00;;;28.60;99.90;;;;;;5045896;28;20218;-68
2022/07/31 08:12:35;;;;;;;11.50;3.75;;;28.80;99.90;;;;;;5049086;28;20199;-69
2022/07/31 08:15:03;;;;;;;7.10;3.38;;;29.20;99.90;;;;;;5049472;28;20195;-67
2022/07/31 08:17:30;;;;;;;5.95;4.10;;;29.40;99.90;;;;;;5049784;28;20245;-68
2022/07/31 08:19:56;;;;;;;5.97;4.10;;;29.60;99.90;;;;;;5048869;28;20237;-68
2022/07/31 08:22:23;;;;;;;11.80;4.00;;;29.40;99.90;;;;;;5046908;28;20195;-69
2022/07/31 08:24:50;;;;;;;5.50;3.20;;;29.50;99.90;;;;;;5049262;28;20195;-69
2022/07/31 08:27:22;;;;;;;5.05;3.70;;;29.50;99.90;;;;;;5049576;28;20191;-68
2022/07/31 08:30:06;;;;;;;7.85;3.45;;;29.60;99.90;;;;;;5042703;28;20203;-68
2022/07/31 08:32:32;;;;;;;4.97;3.05;;;29.80;99.90;;;;;;5043768;28;20268;-68
2022/07/31 08:34:59;;;;;;;6.38;2.70;;;30.00;99.90;;;;;;5052711;28;20186;-69
2022/07/31 08:37:26;;;;;;;5.93;3.15;;;30.10;99.90;;;;;;5052201;28;20194;-68
2022/07/31 08:40:15;;;;;;;6.03;2.88;;;30.30;99.90;;;;;;5049301;28;20214;-69
2022/07/31 08:42:45;;;;;;;4.03;2.92;;;30.40;99.90;;;;;;5053601;28;20201;-69
2022/07/31 08:45:13;;;;;;;5.60;2.80;;;30.40;99.90;;;;;;5053926;28;20572;-68
2022/07/31 08:47:45;;;;;;;3.95;2.92;;;30.50;99.90;;;;;;5051952;28;20888;-68
2022/07/31 08:50:14;;;;;;;5.68;2.90;;;30.60;99.90;;;;;;5052847;28;20728;-66
2022/07/31 08:52:43;;;;;;;3.80;2.80;;;30.70;99.90;;;;;;5053047;28;20199;-69
2022/07/31 08:55:11;;;;;;;4.60;2.85;;;30.80;99.90;;;;;;5043783;28;20244;-68
2022/07/31 08:57:58;;;;;;;5.15;2.90;;;30.50;99.90;;;;;;5052858;28;20249;-69
2022/07/31 09:00:27;;;;;;;3.90;2.97;;;30.60;99.90;;;;;;5052723;28;20226;-68
2022/07/31 09:02:54;;;;;;;3.45;2.65;;;30.80;99.90;;;;;;5052463;28;20199;-68
2022/07/31 09:05:21;;;;;;;3.17;2.42;;;31.10;99.90;;;;;;5053469;28;20205;-69
2022/07/31 09:07:48;;;;;;;4.43;3.28;;;31.30;99.90;;;;;;5053210;28;20206;-69
2022/07/31 09:10:25;;;;;;;4.30;2.78;;;31.00;99.90;;;;;;5047898;28;20222;-69
2022/07/31 09:12:53;;;;;;;4.25;3.00;;;31.20;99.90;;;;;;5051781;28;20209;-68
2022/07/31 09:15:24;;;;;;;7.30;2.90;;;31.30;99.90;;;;;;5053568;28;20191;-69
2022/07/31 09:17:51;;;;;;;7.32;2.90;;;31.00;99.90;;;;;;5051989;28;20194;-68
2022/07/31 09:20:26;;;;;;;3.67;2.60;;;31.10;99.90;;;;;;5049875;28;20340;-68
2022/07/31 09:23:09;;;;;;;2.88;2.50;;;31.00;99.90;;;;;;5052027;28;20248;-69
2022/07/31 09:25:36;;;;;;;3.42;2.83;;;30.90;99.90;;;;;;5052733;28;20206;-69
2022/07/31 09:28:05;;;;;;;4.95;2.75;;;30.40;99.90;;;;;;5042175;28;20195;-69
2022/07/31 09:30:33;;;;;;;4.50;2.72;;;30.20;99.90;;;;;;5052483;28;20227;-69
2022/07/31 09:33:16;;;;;;;2.92;2.63;;;30.40;99.90;;;;;;5041553;28;20214;-66
2022/07/31 09:35:50;;;;;;;5.07;2.90;;;30.50;99.90;;;;;;5052610;28;20791;-68
2022/07/31 09:38:18;;;;;;;3.40;2.78;;;30.30;99.90;;;;;;5051690;28;20194;-69
2022/07/31 09:40:45;;;;;;;4.57;2.65;;;30.20;99.90;;;;;;5052151;28;20725;-69
2022/07/31 09:43:23;;;;;;;3.13;2.75;;;30.40;99.90;;;;;;5052783;28;20210;-68
2022/07/31 09:45:59;;;;;;;3.55;2.90;;;30.40;99.90;;;;;;5051497;28;20191;-69
2022/07/31 09:48:26;;;;;;;3.40;2.78;;;30.50;99.90;;;;;;5051293;28;20201;-69
2022/07/31 09:50:59;;;;;;;3.45;2.53;;;30.70;99.90;;;;;;5052264;28;20227;-69
2022/07/31 09:53:37;;;;;;;4.43;2.50;;;30.90;99.90;;;;;;5052720;28;20260;-69
2022/07/31 09:56:11;;;;;;;3.00;2.55;;;30.80;99.90;;;;;;5046847;28;20278;-68
2022/07/31 09:58:39;;;;;;;4.65;2.53;;;31.20;99.90;;;;;;5052355;28;20599;-69
2022/07/31 10:01:09;;;;;;;3.67;2.60;;;31.60;99.90;;;;;;5051417;28;20214;-69
2022/07/31 10:03:38;;;;;;;4.45;2.67;;;32.20;99.90;;;;;;5049061;28;20575;-69
2022/07/31 10:06:07;;;;;;;3.63;2.90;;;32.40;99.30;;;;;;5052117;28;20232;-69
2022/07/31 10:08:35;;;;;;;5.25;2.80;;;31.90;99.50;;;;;;5052127;28;20195;-69
2022/07/31 10:11:03;;;;;;;5.82;3.10;;;31.30;99.90;;;;;;5047413;28;20215;-69
2022/07/31 10:13:34;;;;;;;4.18;2.53;;;31.40;99.90;;;;;;5052279;28;20199;-68
2022/07/31 10:16:03;;;;;;;3.08;2.67;;;31.90;99.90;;;;;;5052350;28;20191;-68
2022/07/31 10:18:35;;;;;;;6.00;2.60;;;32.40;99.70;;;;;;5052321;28;20264;-68
2022/07/31 10:21:06;;;;;;;6.80;2.50;;;32.50;98.70;;;;;;5045609;28;20249;-69
2022/07/31 10:23:35;;;;;;;5.72;2.70;;;32.80;98.90;;;;;;5051686;28;20203;-70
2022/07/31 10:26:02;;;;;;;2.70;2.40;;;32.50;98.20;;;;;;5034716;28;20191;-68
2022/07/31 10:28:29;;;;;;;3.78;2.67;;;32.10;98.30;;;;;;5049784;28;20205;-69
2022/07/31 10:30:56;;;;;;;4.68;2.90;;;32.20;99.10;;;;;;5051356;28;20226;-69
2022/07/31 10:33:25;;;;;;;5.70;2.97;;;31.90;99.10;;;;;;5051522;28;20203;-69
2022/07/31 10:36:20;;;;;;;4.50;2.83;;;31.90;98.80;;;;;;5045363;28;20211;-69
2022/07/31 10:38:57;;;;;;;6.47;2.85;;;31.20;99.50;;;;;;5051114;28;20203;-69
2022/07/31 10:41:40;;;;;;;3.10;2.72;;;31.00;99.70;;;;;;5050701;28;20647;-69
2022/07/31 10:44:14;;;;;;;4.93;3.20;;;30.90;99.60;;;;;;5045716;28;20195;-68
2022/07/31 10:46:40;;;;;;;5.20;2.70;;;30.70;99.90;;;;;;5050184;28;20199;-67
2022/07/31 10:49:07;;;;;;;5.93;2.88;;;30.50;99.90;;;;;;5051977;28;20209;-69
2022/07/31 10:51:46;;;;;;;5.88;2.80;;;30.60;99.90;;;;;;5051113;28;20620;-68
2022/07/31 10:54:14;;;;;;;4.68;2.75;;;30.70;99.90;;;;;;5044971;28;20202;-68
2022/07/31 10:56:42;;;;;;;3.55;2.97;;;31.00;99.90;;;;;;5050319;28;20197;-69
2022/07/31 10:59:09;;;;;;;6.03;2.80;;;30.80;99.60;;;;;;5041579;28;20194;-69
2022/07/31 11:01:49;;;;;;;4.78;2.90;;;30.60;99.90;;;;;;5051071;28;20580;-69
2022/07/31 11:04:45;;;;;;;5.63;3.10;;;30.70;99.90;;;;;;5050585;28;20199;-69
2022/07/31 11:07:18;;;;;;;4.30;2.88;;;30.80;99.90;;;;;;5047762;28;20198;-68
2022/07/31 11:09:45;;;;;;;3.05;2.75;;;31.10;99.50;;;;;;5050120;28;20202;-69
2022/07/31 11:12:18;;;;;;;3.42;3.10;;;31.20;99.10;;;;;;5047542;28;20259;-69
2022/07/31 11:14:45;;;;;;;4.57;3.40;;;31.30;99.70;;;;;;5049422;28;20249;-68
2022/07/31 11:17:11;;;;;;;4.70;3.17;;;31.30;99.00;;;;;;5050989;28;20225;-68
2022/07/31 11:19:42;;;;;;;6.10;3.33;;;31.10;98.90;;;;;;5047368;28;20198;-69
2022/07/31 11:22:14;;;;;;;6.70;3.20;;;30.80;99.20;;;;;;5044599;28;20214;-69
2022/07/31 11:24:58;;;;;;;3.58;2.75;;;30.50;99.90;;;;;;5050443;28;20276;-69
2022/07/31 11:27:31;;;;;;;5.22;2.90;;;30.70;99.20;;;;;;5050854;28;20199;-70
2022/07/31 11:30:05;;;;;;;3.47;2.75;;;31.00;99.30;;;;;;5041953;28;20199;-69
2022/07/31 11:32:40;;;;;;;6.85;2.80;;;31.40;99.00;;;;;;5050212;28;20250;-69
2022/07/31 11:35:07;;;;;;;5.22;2.63;;;31.80;98.20;;;;;;5050614;28;20191;-68
2022/07/31 11:37:34;;;;;;;4.03;2.80;;;31.70;98.10;;;;;;5049902;28;20191;-67
2022/07/31 11:40:21;;;;;;;3.25;2.75;;;31.90;98.40;;;;;;5050189;28;20273;-69
2022/07/31 11:42:53;;;;;;;2.92;2.58;;;31.80;97.60;;;;;;5050904;28;20202;-68
2022/07/31 11:45:51;;;;;;;3.28;2.60;;;31.70;97.40;;;;;;5047562;28;20252;-70
2022/07/31 11:48:19;;;;;;;6.15;2.63;;;31.90;97.20;;;;;;5050416;28;20194;-69
2022/07/31 11:50:48;;;;;;;4.22;2.70;;;31.70;97.20;;;;;;5049493;28;20226;-70
2022/07/31 11:53:16;;;;;;;3.97;2.45;;;31.70;97.70;;;;;;5050171;28;20195;-68
2022/07/31 11:55:58;;;;;;;5.20;2.92;;;31.70;97.20;;;;;;5042604;28;20559;-69
2022/07/31 11:58:26;;;;;;;7.07;2.70;;;31.70;97.40;;;;;;5050342;28;20695;-69
2022/07/31 12:00:58;;;;;;;2.72;2.53;;;32.30;97.00;;;;;;5049577;28;20720;-68
2022/07/31 12:03:31;;;;;;;5.53;2.85;;;32.50;96.70;;;;;;5050296;28;20203;-69
2022/07/31 12:05:58;;;;;;;2.78;2.47;;;32.40;96.80;;;;;;5049333;28;20191;-68
2022/07/31 12:08:26;;;;;;;3.60;3.10;;;32.40;97.10;;;;;;5046222;28;20565;-69
2022/07/31 12:10:58;;;;;;;4.40;2.90;;;32.50;96.60;;;;;;5049646;28;20214;-66
2022/07/31 12:13:26;;;;;;;4.18;2.67;;;32.30;96.90;;;;;;5047994;28;20203;-70
2022/07/31 12:15:53;;;;;;;4.97;2.80;;;32.60;96.90;;;;;;5049267;28;20241;-69
2022/07/31 12:18:20;;;;;;;3.20;2.90;;;32.70;96.50;;;;;;5049991;28;20282;-69
2022/07/31 12:20:58;;;;;;;4.55;2.70;;;32.50;96.10;;;;;;5049441;28;20272;-69
2022/07/31 12:23:25;;;;;;;4.03;2.80;;;32.70;96.90;;;;;;5048551;28;20201;-69
2022/07/31 12:26:10;;;;;;;3.75;2.70;;;33.10;95.70;;;;;;5048233;28;20191;-69
2022/07/31 12:28:36;;;;;;;5.18;2.25;;;33.60;95.60;;;;;;5050133;28;20199;-68
2022/07/31 12:31:03;;;;;;;3.42;2.40;;;33.60;94.80;;;;;;5049799;28;20268;-69
2022/07/31 12:33:39;;;;;;;3.15;2.47;;;33.30;94.90;;;;;;5046094;28;20630;-69
2022/07/31 12:36:15;;;;;;;3.63;2.20;;;33.40;94.50;;;;;;5050123;28;20198;-69
2022/07/31 12:38:43;;;;;;;2.25;2.05;;;33.60;95.00;;;;;;5047959;28;20206;-68
2022/07/31 12:41:15;;;;;;;3.55;2.17;;;34.00;93.70;;;;;;5043009;28;20221;-69
2022/07/31 12:43:41;;;;;;;3.05;2.05;;;34.30;94.00;;;;;;5049863;28;20257;-69
2022/07/31 12:46:19;;;;;;;2.75;2.30;;;34.50;93.90;;;;;;5049068;28;20206;-69
2022/07/31 12:48:46;;;;;;;3.50;2.25;;;34.50;93.80;;;;;;5044441;28;20203;-69
2022/07/31 12:51:13;;;;;;;2.22;1.90;;;34.10;93.60;;;;;;5049216;28;20245;-69
2022/07/31 12:53:39;;;;;;;2.70;1.80;;;34.00;94.30;;;;;;5050033;28;20709;-69
2022/07/31 12:56:10;;;;;;;2.45;1.80;;;33.70;93.60;;;;;;5050117;28;20195;-69
2022/07/31 12:58:37;;;;;;;2.33;2.10;;;33.50;93.60;;;;;;5046599;28;20218;-68